SBOSBO IAH / KIAH
Speedbird OnlineSpeedbird Online IAH / KIAH

George Bush Intercontinental Houston Airport
03:34 19°C

Location Houston, United States
Latitude: 29.984399795532227
Longitude: -95.34140014648438
Web Airport Website | Wikipedia
Altitude 30 Meter / 97 Feet
Distance 7,799 KM / 4,846 Miles
from London.
Time Zone UTC -5 hours (America/Chicago)
Codes IATA: IAH
ICAO: KIAH
Currency £1 equals USD 1.13
Runways
RunwayLength (m)Surface
08L2743Concrete
08R2866Concrete
093048Asphalt
15L3658Concrete
15R3048Concrete
26L2866Concrete
26R2743Concrete
273048Asphalt
33L3048Concrete
33R3658Concrete
Radio
TypeDescriptionFrequency
APPAPP120.05
ATISATIS124.05
CLDCLNC DEL128.1
DEPDEP119.7
DEPDEP28.14
GNDGND118.575
RDOMONTGOMERY CO RDO122.4
TWRTWR120.725
TWRTWR29.02
UNICUNICOM122.95
Live ATC
METAR KIAH 060753Z 34003KT 10SM CLR 18/17 A3010 RMK AO2 SLP191 T01780167
TAF KIAH 060520Z 0606/0712 VRB03KT P6SM SKC FM062100 12007KT P6SM SCT250 FM070300 VRB04KT P6SM FEW250
Weather As Of 06 Oct 2022 03:34
Description Clear sky
Wind 6 km/h from North (340°)
Cloud Cover 0%
Precipitation Rain: none, Snow: none
Sunrise 07:17
Sunset 19:01
Lounges American Airlines Admirals Club, Terminal A
Air France Lounge, Terminal D
British Airways Club Lounge / First Lounge TEMPORARILY CLOSED, Terminal D
HAS Executive Club, Terminal D
Rotations During the last 90 days there were
94 flights from LHR
96 flights to LHR


© 2017-2022 Speedbird Online